Airfield :
LOGIN :

Register | Disclaimer

   EN    FR    IT 

 










Legend :    VFR   Marginal VFR   IFR   Intensive IFR   Very Intensive IFR
Visi :
Ceiling :
>= 8 km
>= 3000ft
5 to 8 km
1000 to 3000 ft
1500m to 5 km
500 to 1000 ft
800 to 1500m
200 to 500 ft
< 800m
< 200 ft
Symbols :   Thunderstorms  Fog  Heavy snow  Heavy precipitations  Wind > 20 kt
SIGMETs :     Misc.  Thunderstorms  Icing  Turbulence  Mountain Waves  Volcanic Ashes






- Airport Elevation : 160 ft
- IATA code : FMO


EDDG - Münster Osnabrück Int.

CURRENT METAR :
  • 191720Z 24012KT 9999 FEW040 06/M01 Q1020 NOSIG

EXPIRED METARs :
  • 191650Z 24011KT 9999 SCT038 07/M01 Q1019 NOSIG
  • 191620Z 25015KT 9999 FEW035 07/M01 Q1019 NOSIG
  • 191550Z 25016KT 9999 SCT035 07/M00 Q1019 NOSIG
  • 191520Z 25017KT 9999 FEW036 SCT046 08/M01 Q1018 NOSIG
  • 191450Z 26016KT 9999 SCT039 08/M00 Q1018 NOSIG

TAF TAF EDDG
Valid from the 19 at 18:00 until the 20 at 18:00 UTC


191700Z 1918/2018 22010KT 9999 SCT035
TEMPO 2000/2010 4000 RADZ BKN010
PROB30
TEMPO 2005/2008 BKN008
BECMG 2009/2012 21015G25KT



MET'MAP, your aeronautical weather chart ! - Copyright ORBIFLY December 2007 - Disclaimer

ORBIFLY MET'MAP TEAM :

Programming & Development : Alexandra Zaïnal
Concept & original design : Baudouin d'Aumeries
Assistance for programming : Marc-Olivier Méhu
Technical & hardware support : Manuel Goepfert

Contact : metmap@orbifly.com




SOURCES & CREDITS :

   NOAA